• Join FlightAware (Why Join?)
  • Login
  • US Flag 
12:24PM EDT


 

Airport Tracker/Info


-or-


 

Live Flight TrackerFlight Track Log ✈ N63981 ✈ 09-Apr-2014 ✈ KAIK - 2G9

Flight Track Log - Related Links

Times and Time Zones

All times are in EDT time to prevent confusion due to time zone crossing. See the N63981 flight status page for this flight to view local times or setup timezone preferences in your user account.

Time Position Orientation Groundspeed Altitude Reporting Facility
EDT Latitude Longitude Course Direction KTS MPH feet Rate Location/Type
07:50PM 33.8549 -81.8463 329° Northwest  Level FlightAware Approximate
07:51PM 33.8918 -81.8735 326° Northwest  Level FlightAware Approximate
07:52PM 33.9276 -81.9028 326° Northwest  Level FlightAware Approximate
07:53PM 33.9634 -81.9321 326° Northwest  Level FlightAware Approximate
07:54PM 33.9992 -81.9614 326° Northwest  Level FlightAware Approximate
07:55PM 34.0350 -81.9907 326° Northwest  Level FlightAware Approximate
07:56PM 34.0710 -82.0198 329° Northwest  Level FlightAware Approximate
07:57PM 34.1081 -82.0467 329° Northwest  Level FlightAware Approximate
07:58PM 34.1452 -82.0737 329° Northwest  Level FlightAware Approximate
07:59PM 34.1823 -82.1007 329° Northwest  Level FlightAware Approximate
08:00PM 34.2193 -82.1277 329° Northwest  Level FlightAware Approximate
08:01PM 34.2573 -82.1479 14° North  Level FlightAware Approximate
08:02PM 34.2993 -82.1354 14° North  Level FlightAware Approximate
08:03PM 34.3414 -82.1230 14° North  Level FlightAware Approximate
08:04PM 34.3853 -82.1149 North  Level FlightAware Approximate
08:05PM 34.4292 -82.1068 North  Level FlightAware Approximate
08:06PM 34.4731 -82.0986 North  Level FlightAware Approximate
08:07PM 34.5170 -82.0905 North  Level FlightAware Approximate
08:08PM 34.5608 -82.0823 North  Level FlightAware Approximate
08:09PM 34.6048 -82.0742 North  Level FlightAware Approximate
08:10PM 34.6486 -82.0660 North  Level FlightAware Approximate
08:11PM 34.6925 -82.0578 North  Level FlightAware Approximate
08:12PM 34.7364 -82.0496 North  Level FlightAware Approximate
08:13PM 34.7803 -82.0414 North  Level FlightAware Approximate
08:14PM 34.8242 -82.0332 North  Level FlightAware Approximate
08:14PM 34.8222 -81.9564 North 176 203 7,000  Level Atlanta Center
08:16PM 34.9100 -81.9592 23° Northeast 172 198 7,000  Level Atlanta Center
08:17PM 34.9559 -82.0086 North  Level FlightAware Approximate
08:17PM 34.9661 -81.9578 North 181 208 7,000  Level Atlanta Center
08:18PM 34.9997 -82.0003 North  Level FlightAware Approximate
08:18PM 35.0119 -81.9542 North 180 207 7,000  Level Atlanta Center
08:19PM 35.0581 -81.9556 359° North 174 200 7,000  Level Atlanta Center
08:20PM 35.0875 -81.9838 North  Level FlightAware Approximate
08:20PM 35.1039 -81.9544 North 190 219 7,000  Level Atlanta Center
08:21PM 35.1478 -81.9558 359° North 179 206 7,000  Level Atlanta Center
08:22PM 35.1936 -81.9547 North 171 197 7,000  Level Atlanta Center
08:23PM 35.2394 -81.9561 359° North 165 190 7,000  Level Atlanta Center
08:24PM 35.2856 -81.9575 359° North 160 184 7,000  Level Atlanta Center
08:25PM 35.3314 -81.9539 North 160 184 7,000  Level Atlanta Center
08:26PM 35.3772 -81.9553 359° North 160 184 7,000  Level Atlanta Center
08:27PM 35.4211 -81.9542 North 160 184 7,000  Level Atlanta Center
08:30PM 35.5483 -81.9558 27° Northeast 155 178 7,000  Level Atlanta Center
08:31PM 35.5875 -81.9294 29° Northeast 155 178 7,000  Level Atlanta Center
08:32PM 35.6225 -81.9006 34° Northeast 155 178 7,000  Level Atlanta Center
08:33PM 35.6639 -81.8789 23° Northeast 155 178 7,000  Level Atlanta Center
08:34PM 35.7053 -81.8625 18° North 155 178 7,000  Level Atlanta Center
08:35PM 35.7464 -81.8331 30° Northeast 155 178 7,000  Level Atlanta Center
08:36PM 35.7621 -81.8019 27° Northeast  Level FlightAware Approximate
08:36PM 35.7833 -81.7989 37° Northeast 160 184 7,000  Level Atlanta Center
08:37PM 35.8183 -81.7697 34° Northeast 160 184 7,000  Level Atlanta Center
08:38PM 35.8553 -81.7381 35° Northeast 160 184 7,000  Level Atlanta Center
08:39PM 35.8922 -81.7061 35° Northeast 160 184 7,000  Level Atlanta Center
08:40PM 35.9269 -81.6744 36° Northeast 160 184 7,000  Level Atlanta Center
08:41PM 35.9639 -81.6425 35° Northeast 155 178 7,000  Level Atlanta Center
08:42PM 36.0031 -81.6183 27° Northeast 155 178 7,000  Level Atlanta Center
08:43PM 36.0422 -81.5992 22° Northeast 155 178 7,000  Level Atlanta Center
08:44PM 36.0817 -81.5800 21° North 150 173 7,000  Level Atlanta Center
08:45PM 36.1189 -81.5608 23° Northeast 150 173 7,000  Level Atlanta Center
08:46PM 36.1558 -81.5417 23° Northeast 150 173 7,000  Level Atlanta Center
08:47PM 36.1950 -81.5172 27° Northeast 150 173 7,000  Level Atlanta Center
08:48PM 36.2342 -81.4931 26° Northeast 150 173 7,000  Level Atlanta Center
08:49PM 36.2711 -81.4661 30° Northeast 150 173 7,000  Level Atlanta Center
08:50PM 36.3103 -81.4417 27° Northeast 155 178 7,000  Level Atlanta Center
08:51PM 36.3514 -81.4169 26° Northeast 155 178 7,000  Level Atlanta Center
08:52PM 36.3906 -81.3925 27° Northeast 155 178 7,000  Level Atlanta Center
08:53PM 36.4297 -81.3656 29° Northeast 155 178 7,000  Level Atlanta Center
08:55PM 36.5058 -81.3192 26° Northeast 155 178 7,000  Level Atlanta Center
08:56PM 36.5469 -81.2944 26° Northeast 155 178 7,000  Level Atlanta Center
08:57PM 36.5858 -81.2697 27° Northeast 155 178 7,000  Level Atlanta Center
08:58PM 36.6250 -81.2453 27° Northeast 155 178 7,000  Level Atlanta Center
08:59PM 36.6642 -81.2206 27° Northeast 155 178 7,000  Level Atlanta Center
09:00PM 36.7031 -81.1983 25° Northeast 155 178 7,000  Level Atlanta Center
09:01PM 36.7422 -81.1736 27° Northeast 155 178 7,000  Level Atlanta Center
09:03PM 36.8056 -81.1356 26° Northeast 158 182 7,000  Level Indianapolis Center
09:04PM 36.8572 -81.0994 29° Northeast 155 178 7,000  Level Atlanta Center
09:05PM 36.8964 -81.0772 24° Northeast 155 178 7,000  Level Atlanta Center
09:06PM 36.9394 -81.0522 25° Northeast 155 178 7,000  Level Atlanta Center
09:10PM 37.0700 -80.9725 26° Northeast 155 178 7,000  Level Washington Center
09:11PM 37.1086 -80.9467 28° Northeast 155 178 7,000  Level Washington Center
09:13PM 37.1836 -80.9050 24° Northeast 155 178 7,000  Level Washington Center
09:14PM 37.2222 -80.8789 28° Northeast 155 178 7,000  Level Washington Center
09:15PM 37.2608 -80.8528 28° Northeast 155 178 7,000  Level Washington Center
09:16PM 37.2997 -80.8242 30° Northeast 155 178 7,000  Level Washington Center
09:17PM 37.3403 -80.8008 25° Northeast 155 178 7,000  Level Washington Center
09:19PM 37.4175 -80.7564 25° Northeast 155 178 7,000  Level Washington Center
09:20PM 37.4519 -80.7325 29° Northeast 155 178 7,000  Level Washington Center
09:21PM 37.4925 -80.7067 27° Northeast 155 178 7,000  Level Washington Center
09:22PM 37.5314 -80.6803 28° Northeast 155 178 7,000  Level Washington Center
09:23PM 37.5697 -80.6567 26° Northeast 155 178 7,000  Level Washington Center
09:25PM 37.6514 -80.6044 27° Northeast 155 178 7,000  Level Washington Center
09:26PM 37.6919 -80.5783 27° Northeast 155 178 7,000  Level Washington Center
09:27PM 37.7306 -80.5547 26° Northeast 155 178 7,000  Level Washington Center
09:28PM 37.7647 -80.5333 26° Northeast 155 178 7,000 60 Level Washington Center
09:29PM 37.8033 -80.5094 26° Northeast 155 178 7,200 240 Climbing Washington Center
09:30PM 37.8397 -80.4856 27° Northeast 150 173 7,500 120 Climbing Washington Center
09:31PM 37.8764 -80.4589 30° Northeast 150 173 7,500  Level Washington Center
09:32PM 37.9211 -80.4328 25° Northeast 150 173 7,500  Level Washington Center
09:33PM 37.9597 -80.4064 28° Northeast 150 173 7,500  Level Washington Center
09:34PM 38.0003 -80.3828 25° Northeast 155 178 7,500  Level Washington Center
09:35PM 38.0389 -80.3561 29° Northeast 155 178 7,500  Level Washington Center
09:36PM 38.0775 -80.3297 28° Northeast 155 178 7,500  Level Washington Center
09:37PM 38.1139 -80.3081 25° Northeast 155 178 7,500  Level Washington Center
09:38PM 38.1525 -80.2842 26° Northeast 155 178 7,500  Level Washington Center
09:39PM 38.1908 -80.2600 26° Northeast 155 178 7,500  Level Washington Center
09:40PM 38.2294 -80.2361 26° Northeast 155 178 7,500  Level Washington Center
09:41PM 38.2681 -80.2067 31° Northeast 155 178 7,500  Level Washington Center
09:42PM 38.3086 -80.1828 25° Northeast 155 178 7,500  Level Washington Center
09:43PM 38.3450 -80.1558 30° Northeast 155 178 7,500  Level Washington Center
09:44PM 38.3833 -80.1344 24° Northeast 155 178 7,500  Level Washington Center
09:45PM 38.4175 -80.1128 26° Northeast 155 178 7,500  Level Washington Center
09:46PM 38.4583 -80.0861 27° Northeast 155 178 7,500  Level Washington Center
09:52PM 38.7181 -79.9097 27° Northeast 162 186 7,500  Level Cleveland Center
09:53PM 38.7578 -79.8817 29° Northeast 162 186 7,500  Level Cleveland Center
09:54PM 38.7972 -79.8569 26° Northeast 162 186 7,500  Level Cleveland Center
09:56PM 38.8764 -79.8022 28° Northeast 161 185 7,500  Level Cleveland Center
09:57PM 38.8654 -79.7911 27° Northeast  Level FlightAware Approximate
09:57PM 38.9169 -79.7761 27° Northeast 162 186 7,500  Level Cleveland Center
09:58PM 38.9035 -79.7658 27° Northeast  Level FlightAware Approximate
09:58PM 38.9575 -79.7481 28° Northeast 162 186 7,500  Level Cleveland Center
09:59PM 39.0067 -79.7164 27° Northeast 162 186 7,500  Level Cleveland Center
10:00PM 39.0472 -79.6914 26° Northeast 162 186 7,500  Level Cleveland Center
10:01PM 39.0878 -79.6644 27° Northeast 162 186 7,500  Level Cleveland Center
10:04PM 39.1694 -79.6067 29° Northeast 164 189 7,500  Level Cleveland Center
10:05PM 39.2100 -79.5789 28° Northeast 165 190 7,500  Level Cleveland Center
10:06PM 39.2508 -79.5511 28° Northeast 165 190 7,500  Level Cleveland Center
10:07PM 39.2989 -79.5206 26° Northeast 165 190 7,500  Level Cleveland Center
10:08PM 39.3397 -79.4928 28° Northeast 165 190 7,500  Level Cleveland Center
10:09PM 39.3794 -79.4644 29° Northeast 165 190 7,500  Level Cleveland Center
10:09PM 39.3939 -79.4550 27° Northeast 165 190 7,500  Level Cleveland Center
10:09PM 39.4072 -79.4461 27° Northeast 164 189 7,500  Level Cleveland Center
10:10PM 39.4206 -79.4372 27° Northeast 165 190 7,500  Level Cleveland Center
10:10PM 39.4472 -79.4194 27° Northeast 167 192 7,500  Level Cleveland Center
10:11PM 39.4611 -79.4119 23° Northeast 165 190 7,500  Level Cleveland Center
10:11PM 39.4850 -79.3950 29° Northeast 168 193 7,500  Level Cleveland Center
10:12PM 39.5031 -79.3833 26° Northeast 166 191 7,500  Level Cleveland Center
10:12PM 39.5272 -79.3686 25° Northeast 168 193 7,500  Level Cleveland Center
10:13PM 39.5433 -79.3544 34° Northeast 166 191 7,500  Level Cleveland Center
10:13PM 39.5675 -79.3392 26° Northeast 168 193 7,500  Level Cleveland Center
10:14PM 39.5850 -79.3256 31° Northeast 167 192 7,500  Level Cleveland Center
10:14PM 39.6078 -79.3097 28° Northeast 168 193 7,500  Level Cleveland Center
10:15PM 39.6339 -79.2917 28° Northeast 168 193 7,500 -240 Level Cleveland Center
10:15PM 39.6522 -79.2808 24° Northeast 166 191 7,300 -600 Descending Cleveland Center
10:16PM 39.6775 -79.2686 20° North 170 196 6,900 -540 Descending Cleveland Center
10:16PM 39.6983 -79.2547 27° Northeast 178 205 6,800 -420 Descending Cleveland Center
10:17PM 39.7214 -79.2381 29° Northeast 177 204 6,500 -600 Descending Cleveland Center
10:17PM 39.7408 -79.2256 26° Northeast 180 207 6,200 -540 Descending Cleveland Center
10:18PM 39.7650 -79.2053 33° Northeast 178 205 6,000 -540 Descending Cleveland Center
10:18PM 39.7833 -79.1933 27° Northeast 180 207 5,700 -600 Descending Cleveland Center
10:19PM 39.8086 -79.1756 28° Northeast 178 205 5,400 -600 Descending Cleveland Center
10:19PM 39.8300 -79.1619 26° Northeast 175 201 5,100 -720 Descending Cleveland Center
10:20PM 39.8514 -79.1469 28° Northeast 177 204 4,700 -540 Descending Cleveland Center
10:20PM 39.8722 -79.1325 28° Northeast 175 201 4,600 -120 Descending Cleveland Center
10:21PM 39.8931 -79.1175 29° Northeast 175 201 4,600 -300 Level Cleveland Center
10:21PM 39.9122 -79.1056 26° Northeast 168 193 4,300 -600 Descending Cleveland Center
10:22PM 39.9350 -79.0903 27° Northeast 172 198 4,000 -540 Descending Cleveland Center
10:22PM 39.9544 -79.0761 29° Northeast 166 191 3,800 -600 Descending Cleveland Center
10:23PM 39.9822 -79.0572 28° Northeast 166 191 3,400 -420 Descending Cleveland Center
10:23PM 39.9944 -79.0489 28° Northeast 156 180 3,400 -120 Level Cleveland Center
10:24PM 40.0181 -79.0333 27° Northeast 148 170 3,300  Descending Cleveland Center
10:24PM 40.0200 -79.0197 79° East 124 143 3,400 60 Climbing Cleveland Center
10:25PM 40.0308 -78.9928 62° Northeast 132 152 3,400 -120 Level Cleveland Center
10:25PM 40.0356 -78.9836 56° Northeast 105 121 3,300 -540 Descending Cleveland Center
10:26PM 40.0506 -78.9803 10° North 75 86 2,700 -600 Descending Cleveland Center